Hovedside
METAR-TAF:

METAR-TAF

Lufthavner :

Bodø, Norge

Bodø lufthavn

breddegrad: 67-16N, lengdegrad: 014-22E, høyde over havet: 1 m

Gjeldene værobservasjon

Denne rapporten ble laget for 23 minutter siden, klokken 11:50 UTC
Vind 13 kt fra Øst
Temperatur -2°C
Luftfuktighet 74%
Trykk 993 hPa
Sikt 10 km eller mer
Få skyer i en høyde av 2500 ft
Spredte skyer i en høyde av 6000 ft

METAR: ENBO 151150Z 08013KT 9999 FEW025 SCT060 M02/M06 Q0993 NOSIG

Tid: 13:13 (12:13 UTC)

Varsel

Varsel gyldig fra 15. klokken 12 UTC til 16. klokken 12 UTC
Vind 12 kt fra Øst
Sikt 10 km eller mer
Spredte skyer i en høyde av 3000 ft
Brutte skyer i en høyde av 5000 ft
Midlertidig
fra 15. klokken 12 UTC til 16. klokken 12 UTC
Få skyer i en høyde av 1500 ft, Bygeskyer.

TAF: ENBO 1512/1612 09012KT 9999 SCT030 BKN050 TEMPO 1512/1612 FEW015CB

Værobservasjoner og værvarsel for over 4000 flyplasser (METAR- og TAF-rapporter).

Tilgjengelige stasjoner er representert av de røde og gule prikkene på kartet.

Hold musepekeren over prikken for å se navnet på stasjonen.

Klikk så for å se værobservasjoner og -varsler.

For å forandre kartet kan du klikke på den grønne knappen med svart kryss for å zoome inn, på den grønne knappen med strek for å zoome ut, eller på de grønne pilene for å se tilstøtende kart.


METAR-TAF: